Aigle Des Mers — FO4883 — position and weather

sailwx.info

Track history (hours):
 
Tides and Currents Weather Stations Pressure Air Temp Water Temp Dewpoint Dewpoint Depression Visibility Wind Speed Wind Dir Waves Ship Positions

Aigle Des Mers

Last reported at 2014-Sep-15 05:33 UTC. Time now 2014-Sep-16 09:30 UTC.
Position N 47°51' W 004°24'.

Length 16 m.

Type: Fishing. MMSI: 227318010.

Date/timePositionNaut miles runAvg speedWind from/ knotsBaromVisibWave heightAir tempDewpointWater temp
2014-Sep-15 05:33N 47°51' W 004°24'0 0.4
2014-Sep-15 04:33N 47°51' W 004°24'1 0.7
2014-Sep-15 03:33N 47°51' W 004°24'12 8.0
2014-Sep-15 02:05N 47°58' W 004°39'4 7.8
2014-Sep-15 01:34N 47°59' W 004°45'6 6.4
2014-Sep-15 00:33N 48°01' W 004°54'0 0.2
2014-Sep-14 23:33N 48°01' W 004°53'5 5.2
2014-Sep-14 22:33N 47°59' W 004°47'  
2014-Sep-12 05:33N 47°49' W 004°24'2 2.0
2014-Sep-12 04:33N 47°51' W 004°24'1 1.2
2014-Sep-12 03:33N 47°50' W 004°22'0 0.4
2014-Sep-12 02:33N 47°51' W 004°22'2 0.1
2014-Sep-11 07:33N 47°49' W 004°23'0 0.0
2014-Sep-11 06:33N 47°49' W 004°23'10 3.4
2014-Sep-11 03:33N 47°57' W 004°32'5 4.5
2014-Sep-11 02:33N 47°58' W 004°39'5 2.4
2014-Sep-11 00:34N 47°54' W 004°41'9 3.0
2014-Sep-10 21:33N 47°52' W 004°28'6 6.4
2014-Sep-10 20:33N 47°58' W 004°28'7 0.5
2014-Sep-10 05:33N 47°57' W 004°39'6 3.2
2014-Sep-10 03:33N 47°57' W 004°30'1 1.2
2014-Sep-10 02:34N 47°58' W 004°28'6 2.8
2014-Sep-10 00:33N 47°53' W 004°23'3 0.1
2014-Sep-09 06:33N 47°52' W 004°26'5 5.4
2014-Sep-09 05:33N 47°56' W 004°30'2 1.8
2014-Sep-09 04:33N 47°58' W 004°28'4 3.1
2014-Sep-09 03:25N 47°55' W 004°25'10 5.3
2014-Sep-09 01:33N 47°59' W 004°38'2 1.8
2014-Sep-09 00:34N 47°59' W 004°41'2 1.3
2014-Sep-08 23:26N 47°58' W 004°40'13 4.5
2014-Sep-08 20:33N 47°50' W 004°24'2 0.1
2014-Sep-08 06:34N 47°52' W 004°25'3 1.4
2014-Sep-08 04:33N 47°55' W 004°25'1 0.7
2014-Sep-08 03:33N 47°55' W 004°26'11 1.8
2014-Sep-07 21:33N 47°56' W 004°41'  
2014-Sep-05 08:08N 47°49' W 004°24'5 8.5
2014-Sep-05 07:34N 47°53' W 004°27'  
Track history (hours):
 
Tides and Currents Weather Stations Pressure Air Temp Water Temp Dewpoint Dewpoint Depression Visibility Wind Speed Wind Dir Waves Ship Positions

Aigle Des Mers

Last reported at 2014-Sep-15 05:33 UTC. Time now 2014-Sep-16 09:30 UTC.
Position N 47°51' W 004°24'.

Length 16 m.

Type: Fishing. MMSI: 227318010.

Date/timePositionNaut miles runAvg speedWind from/ knotsBaromVisibWave heightAir tempDewpointWater temp
2014-Sep-15 05:33N 47°51' W 004°24'0 0.4
2014-Sep-15 04:33N 47°51' W 004°24'1 0.7
2014-Sep-15 03:33N 47°51' W 004°24'12 8.0
2014-Sep-15 02:05N 47°58' W 004°39'4 7.8
2014-Sep-15 01:34N 47°59' W 004°45'6 6.4
2014-Sep-15 00:33N 48°01' W 004°54'0 0.2
2014-Sep-14 23:33N 48°01' W 004°53'5 5.2
2014-Sep-14 22:33N 47°59' W 004°47'  
2014-Sep-12 05:33N 47°49' W 004°24'2 2.0
2014-Sep-12 04:33N 47°51' W 004°24'1 1.2
2014-Sep-12 03:33N 47°50' W 004°22'0 0.4
2014-Sep-12 02:33N 47°51' W 004°22'2 0.1
2014-Sep-11 07:33N 47°49' W 004°23'0 0.0
2014-Sep-11 06:33N 47°49' W 004°23'10 3.4
2014-Sep-11 03:33N 47°57' W 004°32'5 4.5
2014-Sep-11 02:33N 47°58' W 004°39'5 2.4
2014-Sep-11 00:34N 47°54' W 004°41'9 3.0
2014-Sep-10 21:33N 47°52' W 004°28'6 6.4
2014-Sep-10 20:33N 47°58' W 004°28'7 0.5
2014-Sep-10 05:33N 47°57' W 004°39'6 3.2
2014-Sep-10 03:33N 47°57' W 004°30'1 1.2
2014-Sep-10 02:34N 47°58' W 004°28'6 2.8
2014-Sep-10 00:33N 47°53' W 004°23'3 0.1
2014-Sep-09 06:33N 47°52' W 004°26'5 5.4
2014-Sep-09 05:33N 47°56' W 004°30'2 1.8
2014-Sep-09 04:33N 47°58' W 004°28'4 3.1
2014-Sep-09 03:25N 47°55' W 004°25'10 5.3
2014-Sep-09 01:33N 47°59' W 004°38'2 1.8
2014-Sep-09 00:34N 47°59' W 004°41'2 1.3
2014-Sep-08 23:26N 47°58' W 004°40'13 4.5
2014-Sep-08 20:33N 47°50' W 004°24'2 0.1
2014-Sep-08 06:34N 47°52' W 004°25'3 1.4
2014-Sep-08 04:33N 47°55' W 004°25'1 0.7
2014-Sep-08 03:33N 47°55' W 004°26'11 1.8
2014-Sep-07 21:33N 47°56' W 004°41'  
2014-Sep-05 08:08N 47°49' W 004°24'5 8.5
2014-Sep-05 07:34N 47°53' W 004°27'  

Dump ship's entire track history